createdAt,value
2022-09-21T00:02:40.334Z,100983.50
2022-09-21T00:06:31.451Z,100982.69
2022-09-21T00:10:15.817Z,100985.28
2022-09-21T00:13:39.175Z,100989.66
2022-09-21T00:17:02.350Z,100986.19
2022-09-21T00:20:26.122Z,100986.97
2022-09-21T00:23:50.516Z,100987.84
2022-09-21T00:27:13.174Z,100993.09
2022-09-21T00:30:36.136Z,100993.84
2022-09-21T00:34:00.630Z,100994.69
2022-09-21T00:37:23.289Z,100995.69
2022-09-21T00:40:47.677Z,101000.91
2022-09-21T00:44:27.529Z,100999.06
2022-09-21T00:47:52.746Z,101013.78
2022-09-21T00:51:16.528Z,101009.47
2022-09-21T00:54:43.985Z,101007.63
2022-09-21T00:58:12.183Z,101004.16
2022-09-21T01:01:35.223Z,101009.31
2022-09-21T01:04:58.805Z,101013.66
2022-09-21T01:08:22.791Z,101011.03
2022-09-21T01:11:57.020Z,101015.38
2022-09-21T01:15:36.150Z,101017.13
2022-09-21T01:19:05.164Z,101009.38
2022-09-21T01:22:42.345Z,101012.75
2022-09-21T01:26:18.112Z,101011.91
2022-09-21T01:29:47.009Z,101013.63
2022-09-21T01:33:18.162Z,101017.88
2022-09-21T01:36:44.802Z,101010.91
2022-09-21T01:40:12.799Z,101009.19
2022-09-21T01:43:39.529Z,101009.09
2022-09-21T01:47:06.188Z,101005.63
2022-09-21T01:50:33.641Z,101005.59
2022-09-21T01:54:00.393Z,101006.56
2022-09-21T01:57:32.675Z,101024.66
2022-09-21T02:00:59.139Z,101022.03
2022-09-21T02:04:23.406Z,101022.03
2022-09-21T02:07:46.877Z,101027.34
2022-09-21T02:11:12.091Z,101030.81
2022-09-21T02:14:35.968Z,101033.50
2022-09-21T02:18:05.070Z,101041.41
2022-09-21T02:21:36.836Z,101038.00
2022-09-21T02:25:07.207Z,101037.16
2022-09-21T02:28:40.167Z,101050.28
2022-09-21T02:32:08.757Z,101049.47
2022-09-21T02:35:38.378Z,101049.63
2022-09-21T02:39:12.089Z,101052.25
2022-09-21T02:42:39.761Z,101037.91
2022-09-21T02:46:08.984Z,101050.78
2022-09-21T02:49:36.534Z,101062.16
2022-09-21T02:53:02.775Z,101073.59
2022-09-21T02:56:29.210Z,101075.38
2022-09-21T02:59:56.886Z,101076.38
2022-09-21T03:03:21.898Z,101078.38
2022-09-21T03:06:44.744Z,101085.38
2022-09-21T03:10:09.858Z,101088.22
2022-09-21T03:13:34.231Z,101090.94
2022-09-21T03:16:57.412Z,101094.63
2022-09-21T03:20:19.966Z,101092.13
2022-09-21T03:23:43.335Z,101094.00
2022-09-21T03:27:06.404Z,101102.75
2022-09-21T03:30:31.101Z,101113.22
2022-09-21T03:33:54.371Z,101109.88
2022-09-21T03:37:17.737Z,101118.56
2022-09-21T03:40:40.419Z,101115.19
2022-09-21T03:44:03.693Z,101125.63
2022-09-21T03:47:29.580Z,101127.34
2022-09-21T03:50:52.342Z,101127.34
2022-09-21T03:54:14.994Z,101135.06
2022-09-21T03:57:39.089Z,101133.31
2022-09-21T04:01:04.398Z,101138.47
2022-09-21T04:04:29.202Z,101141.84
2022-09-21T04:07:51.952Z,101142.72
2022-09-21T04:11:15.419Z,101151.28
2022-09-21T04:14:38.594Z,101153.00
2022-09-21T04:18:01.031Z,101148.72
2022-09-21T04:21:25.836Z,101158.13
2022-09-21T04:24:48.898Z,101151.13
2022-09-21T04:28:11.759Z,101143.50
2022-09-21T04:31:35.442Z,101159.75
2022-09-21T04:34:58.800Z,101156.28
2022-09-21T04:38:23.245Z,101165.72
2022-09-21T04:41:45.848Z,101168.25
2022-09-21T04:45:10.036Z,101168.19
2022-09-21T04:48:32.694Z,101169.84
2022-09-21T04:51:55.960Z,101169.84
2022-09-21T04:55:20.663Z,101178.41
2022-09-21T04:58:43.740Z,101174.06
2022-09-21T05:02:06.684Z,101176.56
2022-09-21T05:05:30.051Z,101183.31
2022-09-21T05:09:10.107Z,101190.19
2022-09-21T05:12:39.699Z,101186.53
2022-09-21T05:16:04.245Z,101186.44
2022-09-21T05:19:27.289Z,101189.69
2022-09-21T05:22:50.039Z,101189.53
2022-09-21T05:26:12.896Z,101196.31
2022-09-21T05:29:38.423Z,101190.09
2022-09-21T05:33:05.579Z,101198.66
2022-09-21T05:36:41.955Z,101196.78
2022-09-21T05:40:06.296Z,101204.47
2022-09-21T05:43:29.917Z,101201.00
2022-09-21T05:47:01.177Z,101208.50
2022-09-21T05:50:42.973Z,101214.31
2022-09-21T05:54:14.859Z,101206.19
2022-09-21T05:57:45.686Z,101204.03
2022-09-21T06:01:23.945Z,101205.47
2022-09-21T06:04:50.148Z,101215.50
2022-09-21T06:08:12.999Z,101222.88
2022-09-21T06:11:36.068Z,101224.94
2022-09-21T06:14:59.231Z,101220.28
2022-09-21T06:18:22.269Z,101226.19
2022-09-21T06:21:47.399Z,101231.28
2022-09-21T06:25:11.270Z,101233.72
2022-09-21T06:28:34.961Z,101230.16
2022-09-21T06:31:58.026Z,101227.50
2022-09-21T06:35:20.885Z,101226.63
2022-09-21T06:38:45.612Z,101244.56
2022-09-21T06:42:10.317Z,101233.88
2022-09-21T06:45:37.340Z,101236.25
2022-09-21T06:49:00.396Z,101236.88
2022-09-21T06:52:23.282Z,101229.13
2022-09-21T06:55:47.758Z,101241.91
2022-09-21T06:59:10.820Z,101247.09
2022-09-21T07:02:33.475Z,101240.94
2022-09-21T07:05:56.282Z,101250.25
2022-09-21T07:13:07.435Z,101253.28
2022-09-21T07:16:30.446Z,101252.25
2022-09-21T07:19:53.044Z,101261.34
2022-09-21T07:23:17.744Z,101256.72
2022-09-21T07:26:40.710Z,101261.66
2022-09-21T07:30:04.900Z,101252.81
2022-09-21T07:33:29.256Z,101268.34
2022-09-21T07:36:54.601Z,101271.81
2022-09-21T07:40:20.755Z,101275.25
2022-09-21T07:43:46.335Z,101273.47
2022-09-21T07:47:10.962Z,101283.66
2022-09-21T07:50:34.946Z,101285.16
2022-09-21T07:53:58.620Z,101276.59
2022-09-21T07:57:38.475Z,101287.06
2022-09-21T08:01:01.475Z,101284.19
2022-09-21T08:04:26.296Z,101289.19
2022-09-21T08:07:49.011Z,101291.53
2022-09-21T08:11:16.873Z,101286.84
2022-09-21T08:14:39.441Z,101290.66
2022-09-21T08:18:02.795Z,101288.63
2022-09-21T08:21:27.187Z,101279.47
2022-09-21T08:24:49.832Z,101287.69
2022-09-21T08:28:12.498Z,101294.63
2022-09-21T08:31:35.492Z,101298.31
2022-09-21T08:34:58.617Z,101307.41
2022-09-21T08:38:23.306Z,101303.56
2022-09-21T08:42:05.307Z,101296.47
2022-09-21T08:45:35.246Z,101298.97
2022-09-21T08:49:04.308Z,101296.13
2022-09-21T08:52:28.311Z,101296.75
2022-09-21T08:55:52.524Z,101300.03
2022-09-21T08:59:16.501Z,101301.38
2022-09-21T09:02:49.705Z,101290.75
2022-09-21T09:06:21.462Z,101300.66
2022-09-21T09:10:01.540Z,101286.16
2022-09-21T09:13:45.286Z,101296.78
2022-09-21T09:17:26.872Z,101302.19
2022-09-21T09:20:56.088Z,101308.28
2022-09-21T09:24:33.890Z,101296.53
2022-09-21T09:28:01.156Z,101308.94
2022-09-21T09:31:38.362Z,101304.13
2022-09-21T09:35:09.323Z,101300.31
2022-09-21T09:38:39.007Z,101300.72
2022-09-21T09:42:27.873Z,101296.81
2022-09-21T09:46:03.036Z,101300.75
2022-09-21T09:49:37.960Z,101308.09
2022-09-21T09:53:07.269Z,101310.09
2022-09-21T09:56:31.880Z,101319.97
2022-09-21T09:59:58.216Z,101317.53
2022-09-21T10:03:24.033Z,101312.09
2022-09-21T10:06:48.222Z,101314.34
2022-09-21T10:10:36.891Z,101307.66
2022-09-21T10:14:11.216Z,101305.22
2022-09-21T10:17:34.347Z,101314.16
2022-09-21T10:21:03.691Z,101311.22
2022-09-21T10:24:31.564Z,101297.72
2022-09-21T10:27:57.498Z,101301.56
2022-09-21T10:31:24.434Z,101296.25
2022-09-21T10:35:03.789Z,101303.56
2022-09-21T10:38:29.215Z,101305.88
2022-09-21T10:41:58.400Z,101321.97
2022-09-21T10:45:21.785Z,101312.09
2022-09-21T10:48:48.124Z,101306.00
2022-09-21T10:52:10.777Z,101312.31
2022-09-21T10:55:33.942Z,101311.91
2022-09-21T10:59:24.035Z,101310.94
2022-09-21T11:02:48.552Z,101326.69
2022-09-21T11:06:17.503Z,101324.13
2022-09-21T11:09:46.123Z,101324.28
2022-09-21T11:13:25.371Z,101314.75
2022-09-21T11:16:57.442Z,101318.03
2022-09-21T11:20:30.434Z,101322.66
2022-09-21T11:24:04.150Z,101332.28
2022-09-21T11:27:32.743Z,101320.03
2022-09-21T11:31:22.611Z,101317.59
2022-09-21T11:35:10.682Z,101316.84
2022-09-21T11:38:45.580Z,101321.03
2022-09-21T11:42:22.582Z,101318.56
2022-09-21T11:45:59.840Z,101318.66
2022-09-21T11:49:41.402Z,101316.63
2022-09-21T11:53:19.829Z,101317.25
2022-09-21T11:56:50.377Z,101326.19
2022-09-21T12:00:18.344Z,101318.19
2022-09-21T12:03:52.763Z,101325.91
2022-09-21T12:07:31.709Z,101319.94
2022-09-21T12:11:06.024Z,101326.94
2022-09-21T12:14:40.974Z,101329.44
2022-09-21T12:18:15.394Z,101327.59
2022-09-21T12:21:42.604Z,101319.31
2022-09-21T12:25:14.531Z,101328.22
2022-09-21T12:28:43.648Z,101331.34
2022-09-21T12:32:10.074Z,101338.91
2022-09-21T12:35:41.908Z,101341.09
2022-09-21T12:39:13.097Z,101348.78
2022-09-21T12:42:42.701Z,101350.00
2022-09-21T12:46:14.772Z,101349.25
2022-09-21T12:49:43.286Z,101347.56
2022-09-21T12:53:06.954Z,101346.50
2022-09-21T12:56:39.641Z,101334.13
2022-09-21T13:00:07.618Z,101343.50
2022-09-21T13:03:41.021Z,101341.66
2022-09-21T13:07:39.310Z,101346.25
2022-09-21T13:11:05.343Z,101341.97
2022-09-21T13:14:35.263Z,101342.22
2022-09-21T13:18:04.783Z,101346.34
2022-09-21T13:21:31.729Z,101348.34
2022-09-21T13:25:04.427Z,101334.06
2022-09-21T13:28:43.151Z,101341.09
2022-09-21T13:32:27.552Z,101344.59
2022-09-21T13:36:02.763Z,101352.78
2022-09-21T13:39:27.459Z,101348.44
2022-09-21T13:42:51.133Z,101348.44
2022-09-21T13:46:56.902Z,101335.72
2022-09-21T13:50:25.701Z,101348.53
2022-09-21T13:53:49.275Z,101342.25
2022-09-21T13:57:29.128Z,101341.47
2022-09-21T14:00:56.429Z,101349.22
2022-09-21T14:04:26.926Z,101351.22
2022-09-21T14:07:55.723Z,101355.78
2022-09-21T14:11:27.386Z,101341.94
2022-09-21T14:15:35.514Z,101344.47
2022-09-21T14:18:59.186Z,101349.97
2022-09-21T14:22:47.225Z,101352.75
2022-09-21T14:26:35.593Z,101347.53
2022-09-21T14:30:07.968Z,101351.09
2022-09-21T14:33:50.487Z,101355.50
2022-09-21T14:37:27.342Z,101351.16
2022-09-21T14:40:58.184Z,101351.31
2022-09-21T14:44:23.834Z,101355.81
2022-09-21T14:48:01.037Z,101357.78
2022-09-21T14:51:38.639Z,101362.25
2022-09-21T14:55:17.476Z,101359.78
2022-09-21T14:58:54.964Z,101364.13
2022-09-21T15:02:22.431Z,101361.94
2022-09-21T15:05:52.051Z,101364.56
2022-09-21T15:10:08.289Z,101362.06
2022-09-21T15:13:59.067Z,101360.63
2022-09-21T15:17:26.840Z,101367.81
2022-09-21T15:21:02.613Z,101370.72
2022-09-21T15:24:31.712Z,101373.72
2022-09-21T15:27:57.641Z,101365.59
2022-09-21T15:31:20.751Z,101371.75
2022-09-21T15:34:43.758Z,101379.06
2022-09-21T15:38:09.697Z,101385.28
2022-09-21T15:41:45.306Z,101385.50
2022-09-21T15:45:18.452Z,101391.03
2022-09-21T15:48:43.155Z,101383.59
2022-09-21T15:52:13.483Z,101390.84
2022-09-21T15:55:37.059Z,101395.53
2022-09-21T15:59:13.221Z,101393.16
2022-09-21T16:02:41.311Z,101398.00
2022-09-21T16:06:20.849Z,101408.75
2022-09-21T16:09:45.448Z,101402.94
2022-09-21T16:13:34.837Z,101404.22
2022-09-21T16:17:08.441Z,101406.28
2022-09-21T16:20:52.189Z,101409.31
2022-09-21T16:24:21.199Z,101422.75
2022-09-21T16:27:51.935Z,101427.38
2022-09-21T16:31:34.114Z,101425.28
2022-09-21T16:35:29.664Z,101432.63
2022-09-21T16:38:55.292Z,101436.44
2022-09-21T16:42:19.791Z,101451.59
2022-09-21T16:45:43.678Z,101445.72
2022-09-21T16:49:07.337Z,101450.34
2022-09-21T16:52:32.040Z,101444.53
2022-09-21T16:55:57.262Z,101451.84
2022-09-21T16:59:23.352Z,101455.50
2022-09-21T17:02:46.371Z,101455.84
2022-09-21T17:06:15.457Z,101465.66
2022-09-21T17:09:39.545Z,101460.78
2022-09-21T17:13:07.317Z,101465.38
2022-09-21T17:16:30.885Z,101470.06
2022-09-21T17:19:55.483Z,101472.91
2022-09-21T17:23:19.673Z,101469.75
2022-09-21T17:26:42.636Z,101478.06
2022-09-21T17:30:13.486Z,101485.19
2022-09-21T17:33:39.508Z,101486.31
2022-09-21T17:37:02.468Z,101490.91
2022-09-21T17:40:27.531Z,101486.84
2022-09-21T17:44:00.177Z,101491.31
2022-09-21T17:47:28.556Z,101494.78
2022-09-21T17:50:52.538Z,101494.94
2022-09-21T17:54:14.477Z,101495.97
2022-09-21T17:57:53.362Z,101505.69
2022-09-21T18:01:24.989Z,101500.53
2022-09-21T18:04:50.998Z,101503.44
2022-09-21T18:08:14.677Z,101505.41
2022-09-21T18:12:11.226Z,101506.38
2022-09-21T18:15:41.237Z,101506.56
2022-09-21T18:19:15.166Z,101516.31
2022-09-21T18:22:47.370Z,101512.97
2022-09-21T18:26:16.974Z,101525.34
2022-09-21T18:29:41.651Z,101520.25
2022-09-21T18:33:14.557Z,101521.19
2022-09-21T18:36:46.733Z,101521.31
2022-09-21T22:41:23.295Z,101529.47
2022-09-21T22:44:45.505Z,101528.63
2022-09-21T22:48:07.467Z,101526.09
2022-09-21T22:51:30.275Z,101529.69
2022-09-21T22:54:52.523Z,101529.81
2022-09-21T22:58:16.699Z,101520.38
2022-09-21T23:01:40.803Z,101533.53
2022-09-21T23:05:03.142Z,101531.06
2022-09-21T23:08:25.284Z,101520.84
2022-09-21T23:11:53.643Z,101532.91
2022-09-21T23:15:17.297Z,101527.69
2022-09-21T23:18:40.816Z,101523.31
2022-09-21T23:22:02.477Z,101526.84
2022-09-21T23:25:24.516Z,101526.13
2022-09-21T23:28:48.071Z,101525.34
2022-09-21T23:32:11.636Z,101522.88
2022-09-21T23:35:33.997Z,101519.59
2022-09-21T23:38:56.515Z,101519.69
2022-09-21T23:42:18.737Z,101520.66
2022-09-21T23:45:42.381Z,101516.47
2022-09-21T23:49:06.266Z,101510.53
2022-09-21T23:52:28.954Z,101510.59
2022-09-21T23:55:51.522Z,101516.72
2022-09-21T23:59:13.828Z,101503.81
